createdAt,value
2023-04-08T00:00:17.069Z,97.65
2023-04-08T00:05:18.750Z,97.79
2023-04-08T00:10:20.924Z,97.60
2023-04-08T00:15:22.638Z,97.76
2023-04-08T00:20:25.325Z,97.84
2023-04-08T00:25:27.133Z,98.04
2023-04-08T00:30:29.122Z,98.09
2023-04-08T00:35:30.779Z,97.90
2023-04-08T00:40:32.367Z,98.46
2023-04-08T00:45:34.285Z,98.68
2023-04-08T00:50:36.342Z,98.87
2023-04-08T00:55:38.011Z,99.28
2023-04-08T01:00:45.900Z,99.43
2023-04-08T01:06:15.807Z,99.03
2023-04-08T01:11:18.465Z,98.69
2023-04-08T01:16:22.827Z,98.21
2023-04-08T01:21:27.214Z,98.47
2023-04-08T01:26:29.924Z,97.94
2023-04-08T01:31:32.516Z,97.76
2023-04-08T01:36:37.332Z,96.87
2023-04-08T01:41:41.171Z,96.81
2023-04-08T01:46:43.574Z,96.44
2023-04-08T01:51:48.386Z,94.89
2023-04-08T01:56:52.682Z,94.89
2023-04-08T02:01:57.185Z,95.78
2023-04-08T02:06:59.579Z,96.15
2023-04-08T02:12:01.773Z,96.39
2023-04-08T02:17:12.465Z,96.58
2023-04-08T02:22:24.338Z,96.17
2023-04-08T02:27:29.578Z,96.00
2023-04-08T02:32:33.228Z,95.15
2023-04-08T02:37:35.319Z,94.89
2023-04-08T02:42:36.993Z,94.65
2023-04-08T02:47:38.845Z,95.25
2023-04-08T02:52:41.288Z,95.87
2023-04-08T02:57:43.186Z,95.51
2023-04-08T03:02:45.318Z,95.50
2023-04-08T03:07:47.242Z,95.87
2023-04-08T03:12:49.112Z,96.38
2023-04-08T03:17:51.023Z,96.75
2023-04-08T03:22:52.749Z,96.75
2023-04-08T03:27:55.201Z,96.35
2023-04-08T03:32:57.110Z,96.12
2023-04-08T03:37:59.310Z,96.35
2023-04-08T03:43:01.221Z,96.15
2023-04-08T03:48:03.243Z,96.37
2023-04-08T03:53:05.091Z,96.53
2023-04-08T03:58:06.861Z,97.14
2023-04-08T04:07:11.991Z,96.58
2023-04-08T04:12:13.689Z,96.33
2023-04-08T04:17:15.775Z,96.04
2023-04-08T04:22:17.486Z,94.84
2023-04-08T04:27:19.127Z,94.56
2023-04-08T04:32:20.805Z,93.97
2023-04-08T04:37:22.524Z,94.53
2023-04-08T04:42:24.193Z,93.57
2023-04-08T04:47:26.417Z,93.71
2023-04-08T04:52:28.026Z,93.14
2023-04-08T04:57:29.665Z,92.69
2023-04-08T05:02:31.568Z,93.01
2023-04-08T05:07:37.026Z,92.93
2023-04-08T05:12:38.860Z,91.80
2023-04-08T05:17:40.900Z,91.69
2023-04-08T05:22:44.587Z,92.05
2023-04-08T05:27:46.990Z,91.77
2023-04-08T05:32:48.833Z,91.91
2023-04-08T05:37:50.628Z,92.12
2023-04-08T05:42:52.268Z,90.72
2023-04-08T05:47:54.279Z,89.56
2023-04-08T05:52:55.955Z,89.51
2023-04-08T05:57:57.522Z,88.82
2023-04-08T06:03:00.927Z,87.74
2023-04-08T06:08:03.020Z,87.35
2023-04-08T06:13:04.669Z,86.80
2023-04-08T06:18:06.849Z,86.25
2023-04-08T06:23:08.592Z,86.07
2023-04-08T06:28:10.329Z,86.17
2023-04-08T06:33:11.957Z,85.97
2023-04-08T06:38:13.612Z,85.81
2023-04-08T06:43:15.350Z,85.27
2023-04-08T06:48:17.029Z,84.66
2023-04-08T06:53:18.700Z,81.94
2023-04-08T06:58:20.606Z,81.00
2023-04-08T07:03:23.267Z,79.15
2023-04-08T07:08:25.092Z,77.42
2023-04-08T07:13:26.845Z,75.61
2023-04-08T07:18:29.239Z,73.11
2023-04-08T07:23:30.958Z,71.64
2023-04-08T07:28:32.764Z,70.93
2023-04-08T07:33:34.479Z,70.13
2023-04-08T07:38:37.845Z,68.02
2023-04-08T07:43:39.538Z,65.69
2023-04-08T07:48:41.176Z,64.57
2023-04-08T07:53:43.005Z,64.60
2023-04-08T07:58:44.849Z,63.86
2023-04-08T08:03:48.069Z,63.75
2023-04-08T08:08:50.131Z,63.84
2023-04-08T08:13:52.104Z,61.60
2023-04-08T08:18:54.034Z,60.58
2023-04-08T08:23:56.932Z,58.83
2023-04-08T08:28:58.675Z,59.55
2023-04-08T08:34:00.408Z,58.11
2023-04-08T08:39:02.302Z,58.92
2023-04-08T08:44:08.748Z,56.59
2023-04-08T08:49:11.747Z,56.71
2023-04-08T08:54:16.112Z,56.10
2023-04-08T08:59:17.784Z,54.77
2023-04-08T09:04:22.612Z,54.76
2023-04-08T09:09:25.578Z,54.06
2023-04-08T09:14:27.275Z,54.31
2023-04-08T09:19:28.968Z,52.44
2023-04-08T09:24:31.297Z,53.10
2023-04-08T09:29:36.407Z,50.90
2023-04-08T09:34:40.355Z,51.50
2023-04-08T09:39:42.122Z,52.13
2023-04-08T09:44:47.215Z,52.22
2023-04-08T09:49:58.504Z,50.26
2023-04-08T09:55:04.563Z,49.46
2023-04-08T10:00:17.762Z,50.18
2023-04-08T10:05:21.143Z,52.30
2023-04-08T10:10:23.743Z,51.83
2023-04-08T10:15:33.603Z,52.72
2023-04-08T10:20:38.353Z,50.78
2023-04-08T10:25:45.302Z,52.22
2023-04-08T10:30:48.604Z,51.47
2023-04-08T10:35:54.696Z,50.95
2023-04-08T10:40:56.800Z,50.45
2023-04-08T10:45:58.665Z,49.50
2023-04-08T10:51:05.279Z,51.10
2023-04-08T10:56:18.286Z,50.79
2023-04-08T11:01:20.206Z,49.69
2023-04-08T11:06:22.175Z,51.41
2023-04-08T11:11:29.444Z,48.98
2023-04-08T11:16:32.494Z,46.84
2023-04-08T11:21:38.717Z,48.48
2023-04-08T11:26:42.074Z,46.27
2023-04-08T11:31:44.301Z,45.86
2023-04-08T11:36:46.418Z,45.68
2023-04-08T11:41:48.235Z,45.75
2023-04-08T11:46:55.603Z,46.73
2023-04-08T11:51:59.358Z,47.94
2023-04-08T11:57:02.972Z,47.83
2023-04-08T12:02:05.297Z,47.25
2023-04-08T12:07:07.375Z,47.34
2023-04-08T12:12:09.038Z,48.31
2023-04-08T12:17:10.678Z,48.11
2023-04-08T12:22:12.474Z,47.07
2023-04-08T12:27:14.247Z,48.33
2023-04-08T12:32:16.340Z,49.45
2023-04-08T12:37:18.214Z,50.41
2023-04-08T12:42:19.928Z,50.75
2023-04-08T12:47:22.599Z,51.83
2023-04-08T12:52:25.397Z,52.19
2023-04-08T12:57:28.447Z,53.16
2023-04-08T13:02:30.744Z,53.98
2023-04-08T13:07:32.528Z,55.46
2023-04-08T13:12:34.186Z,57.00
2023-04-08T13:17:36.150Z,58.06
2023-04-08T13:22:37.991Z,58.14
2023-04-08T13:27:39.686Z,58.37
2023-04-08T13:32:41.573Z,63.66
2023-04-08T13:37:43.510Z,65.20
2023-04-08T13:42:45.260Z,65.95
2023-04-08T13:47:47.257Z,66.61
2023-04-08T13:52:48.965Z,66.56
2023-04-08T13:57:50.660Z,65.64
2023-04-08T14:02:52.834Z,65.38
2023-04-08T14:07:54.625Z,65.67
2023-04-08T14:12:56.286Z,65.18
2023-04-08T14:17:57.977Z,65.20
2023-04-08T14:22:59.720Z,66.03
2023-04-08T14:28:01.633Z,66.32
2023-04-08T14:33:05.304Z,66.33
2023-04-08T14:38:07.198Z,65.98
2023-04-08T14:43:08.914Z,66.94
2023-04-08T14:48:11.975Z,68.52
2023-04-08T14:53:13.683Z,69.67
2023-04-08T14:58:15.570Z,70.63
2023-04-08T15:03:18.840Z,70.41
2023-04-08T15:08:30.294Z,70.11
2023-04-08T15:13:32.018Z,69.42
2023-04-08T15:18:33.749Z,70.20
2023-04-08T15:23:35.522Z,70.25
2023-04-08T15:28:38.278Z,70.24
2023-04-08T15:33:41.558Z,70.86
2023-04-08T15:38:43.258Z,70.30
2023-04-08T15:43:46.175Z,69.85
2023-04-08T15:48:49.303Z,69.47
2023-04-08T15:53:51.673Z,69.85
2023-04-08T15:58:53.664Z,69.89
2023-04-08T16:03:55.874Z,69.49
2023-04-08T16:08:57.725Z,69.85
2023-04-08T16:13:59.410Z,69.27
2023-04-08T16:19:02.304Z,69.93
2023-04-08T16:24:05.743Z,70.97
2023-04-08T16:29:07.508Z,71.54
2023-04-08T16:34:09.161Z,71.97
2023-04-08T16:39:11.151Z,72.25
2023-04-08T16:44:12.926Z,72.34
2023-04-08T16:49:16.213Z,72.64
2023-04-08T16:54:19.313Z,73.17
2023-04-08T16:59:21.171Z,73.20
2023-04-08T17:04:22.854Z,73.63
2023-04-08T17:09:24.671Z,74.14
2023-04-08T17:14:27.373Z,74.73
2023-04-08T17:19:29.327Z,75.22
2023-04-08T17:24:31.003Z,75.43
2023-04-08T17:29:32.726Z,75.80
2023-04-08T17:34:34.437Z,76.43
2023-04-08T17:39:40.706Z,76.76
2023-04-08T17:44:42.774Z,77.47
2023-04-08T17:49:44.514Z,77.63
2023-04-08T17:54:46.437Z,77.86
2023-04-08T17:59:48.113Z,78.36
2023-04-08T18:04:51.887Z,79.14
2023-04-08T18:09:53.686Z,79.63
2023-04-08T18:14:55.401Z,79.99
2023-04-08T18:19:58.545Z,79.63
2023-04-08T18:25:00.712Z,79.52
2023-04-08T18:30:02.495Z,79.38
2023-04-08T18:35:04.373Z,79.74
2023-04-08T18:40:07.532Z,79.78
2023-04-08T18:45:09.668Z,80.16
2023-04-08T18:50:11.385Z,80.05
2023-04-08T18:55:13.259Z,80.28
2023-04-08T19:00:15.484Z,80.61
2023-04-08T19:05:17.924Z,80.70
2023-04-08T19:10:20.831Z,80.83
2023-04-08T19:15:22.625Z,80.82
2023-04-08T19:20:24.649Z,80.85
2023-04-08T19:25:26.586Z,80.86
2023-04-08T19:30:28.318Z,80.88
2023-04-08T19:35:30.351Z,80.94
2023-04-08T19:40:32.166Z,80.98
2023-04-08T19:45:34.410Z,80.71
2023-04-08T19:50:39.410Z,81.23
2023-04-08T19:55:41.298Z,81.11
2023-04-08T20:01:04.016Z,81.25
2023-04-08T20:06:05.710Z,81.17
2023-04-08T20:11:07.361Z,81.59
2023-04-08T20:16:09.104Z,81.29
2023-04-08T20:21:13.968Z,81.30
2023-04-08T20:26:16.738Z,81.34
2023-04-08T20:31:19.248Z,81.36
2023-04-08T20:36:22.114Z,81.24
2023-04-08T20:41:25.709Z,81.12
2023-04-08T20:46:27.624Z,80.76
2023-04-08T20:51:29.285Z,81.35
2023-04-08T20:56:31.017Z,81.29
2023-04-08T21:01:32.797Z,80.69
2023-04-08T21:06:34.837Z,80.92
2023-04-08T21:11:37.162Z,81.04
2023-04-08T21:16:38.903Z,80.90
2023-04-08T21:21:40.635Z,80.81
2023-04-08T21:26:42.304Z,80.82
2023-04-08T21:31:44.029Z,80.90
2023-04-08T21:36:46.085Z,80.70
2023-04-08T21:41:49.292Z,80.76
2023-04-08T21:46:51.300Z,80.86
2023-04-08T21:52:12.862Z,81.32
2023-04-08T21:57:14.407Z,81.41
2023-04-08T22:02:16.477Z,81.75
2023-04-08T22:07:18.430Z,81.86
2023-04-08T22:12:20.515Z,82.23
2023-04-08T22:17:22.209Z,83.27
2023-04-08T22:22:23.932Z,83.93
2023-04-08T22:27:28.252Z,84.18
2023-04-08T22:32:30.023Z,84.93
2023-04-08T22:37:32.245Z,85.23
2023-04-08T22:42:33.903Z,86.34
2023-04-08T22:47:36.449Z,86.69
2023-04-08T22:52:38.170Z,87.16
2023-04-08T22:57:39.834Z,88.19
2023-04-08T23:02:41.608Z,87.66
2023-04-08T23:07:43.722Z,87.85
2023-04-08T23:13:15.449Z,87.71
2023-04-08T23:18:17.093Z,88.34
2023-04-08T23:23:18.708Z,88.27
2023-04-08T23:28:20.608Z,88.33
2023-04-08T23:33:22.337Z,88.73
2023-04-08T23:38:24.061Z,88.86
2023-04-08T23:43:26.710Z,89.04
2023-04-08T23:48:28.405Z,89.18
2023-04-08T23:53:31.911Z,90.18
2023-04-08T23:58:33.903Z,90.79
